LXJ230 KEYW-KPBI
Flight info
| Callsign | LXJ230 |
|---|---|
| Flight time | 0h 39m |
| Altitude | 31000 |
| Route | BUFFT1 BUFFT SWAGS VUUDU1 |
| Aircraft | C25C/M-BGS/L |
Departure
| Time | 2026-04-24 23:34 |
|---|---|
| Airport | Key West International Airport (KEYW) |
Arrival
| Time | 2026-04-25 00:13 |
|---|---|
| Airport | Palm Beach International Airport (KPBI) |
| Time | Latitude | Longitude | Altitude | Speed | Heading |
|---|---|---|---|---|---|
| 2026-04-24 22:50 | 24.55442 | -81.75692 | 13 ft | 0 kts | 357° |
| 2026-04-24 23:27 | 24.55500 | -81.75679 | 13 ft | 8 kts | 359° |
| 2026-04-24 23:28 | 24.55529 | -81.75718 | 13 ft | 8 kts | 269° |
| 2026-04-24 23:28 | 24.55528 | -81.75785 | 13 ft | 10 kts | 269° |
| 2026-04-24 23:28 | 24.55527 | -81.75870 | 11 ft | 13 kts | 270° |
| 2026-04-24 23:28 | 24.55527 | -81.75980 | 8 ft | 16 kts | 270° |
| 2026-04-24 23:29 | 24.55525 | -81.76112 | 6 ft | 18 kts | 268° |
| 2026-04-24 23:29 | 24.55523 | -81.76252 | 6 ft | 19 kts | 270° |
| 2026-04-24 23:29 | 24.55522 | -81.76399 | 6 ft | 20 kts | 269° |
| 2026-04-24 23:29 | 24.55522 | -81.76553 | 5 ft | 21 kts | 269° |
| 2026-04-24 23:30 | 24.55525 | -81.76628 | 6 ft | 2 kts | 289° |
| 2026-04-24 23:32 | 24.55526 | -81.76631 | 6 ft | 4 kts | 290° |
| 2026-04-24 23:33 | 24.55596 | -81.76658 | 7 ft | 10 kts | 28° |
| 2026-04-24 23:33 | 24.55608 | -81.76510 | 7 ft | 56 kts | 89° |
| 2026-04-24 23:33 | 24.55615 | -81.75680 | 132 ft | 147 kts | 89° |
| 2026-04-24 23:33 | 24.55661 | -81.74289 | 497 ft | 212 kts | 86° |
| 2026-04-24 23:34 | 24.56132 | -81.72729 | 1470 ft | 223 kts | 58° |
| 2026-04-24 23:34 | 24.57324 | -81.71607 | 2344 ft | 235 kts | 22° |
| 2026-04-24 23:34 | 24.58958 | -81.71399 | 3124 ft | 238 kts | 357° |
| 2026-04-24 23:34 | 24.60607 | -81.71473 | 4112 ft | 233 kts | 356° |
| 2026-04-24 23:35 | 24.62195 | -81.71509 | 5652 ft | 224 kts | 358° |
| 2026-04-24 23:35 | 24.63784 | -81.71517 | 6878 ft | 230 kts | 357° |
| 2026-04-24 23:35 | 24.65370 | -81.71531 | 8193 ft | 227 kts | 358° |
| 2026-04-24 23:35 | 24.66981 | -81.71508 | 9208 ft | 235 kts | 359° |
| 2026-04-24 23:36 | 24.68624 | -81.71492 | 10229 ft | 237 kts | 358° |
| 2026-04-24 23:36 | 24.70252 | -81.71508 | 11233 ft | 236 kts | 357° |
| 2026-04-24 23:36 | 24.71897 | -81.71319 | 12161 ft | 241 kts | 15° |
| 2026-04-24 23:36 | 24.73359 | -81.70422 | 13161 ft | 247 kts | 34° |
| 2026-04-24 23:37 | 24.74647 | -81.69089 | 13897 ft | 258 kts | 45° |
| 2026-04-24 23:37 | 24.75848 | -81.67588 | 14663 ft | 263 kts | 45° |
| 2026-04-24 23:37 | 24.78342 | -81.64557 | 16215 ft | 270 kts | 43° |
| 2026-04-24 23:38 | 24.79655 | -81.63048 | 16920 ft | 277 kts | 42° |
| 2026-04-24 23:38 | 24.81027 | -81.61515 | 17596 ft | 284 kts | 40° |
| 2026-04-24 23:38 | 24.82520 | -81.60087 | 18340 ft | 284 kts | 32° |
| 2026-04-24 23:38 | 24.84184 | -81.58853 | 18658 ft | 301 kts | 27° |
| 2026-04-24 23:39 | 24.86097 | -81.57727 | 18819 ft | 320 kts | 20° |
| 2026-04-24 23:39 | 24.88219 | -81.56787 | 18944 ft | 339 kts | 16° |
| 2026-04-24 23:39 | 24.90512 | -81.55880 | 18974 ft | 359 kts | 15° |
| 2026-04-24 23:39 | 24.92930 | -81.55001 | 19011 ft | 374 kts | 14° |
| 2026-04-24 23:40 | 24.95358 | -81.53830 | 18998 ft | 387 kts | 26° |
| 2026-04-24 23:40 | 24.97738 | -81.52404 | 18997 ft | 388 kts | 17° |
| 2026-04-24 23:40 | 25.00361 | -81.51753 | 18997 ft | 387 kts | 5° |
| 2026-04-24 23:40 | 25.03046 | -81.51347 | 19015 ft | 391 kts | 4° |
| 2026-04-24 23:41 | 25.05731 | -81.50887 | 19024 ft | 390 kts | 7° |
| 2026-04-24 23:41 | 25.08362 | -81.50097 | 19026 ft | 394 kts | 15° |
| 2026-04-24 23:41 | 25.10939 | -81.49045 | 19028 ft | 396 kts | 18° |
| 2026-04-24 23:41 | 25.13479 | -81.47982 | 19029 ft | 395 kts | 16° |
| 2026-04-24 23:42 | 25.16097 | -81.47069 | 19027 ft | 394 kts | 13° |
| 2026-04-24 23:42 | 25.18724 | -81.46179 | 19029 ft | 395 kts | 14° |
| 2026-04-24 23:42 | 25.21334 | -81.45226 | 19028 ft | 396 kts | 15° |
| 2026-04-24 23:42 | 25.23943 | -81.44259 | 19029 ft | 396 kts | 15° |
| 2026-04-24 23:43 | 25.26560 | -81.43308 | 19026 ft | 395 kts | 14° |
| 2026-04-24 23:43 | 25.29172 | -81.42370 | 19027 ft | 394 kts | 14° |
| 2026-04-24 23:43 | 25.31774 | -81.41426 | 19026 ft | 393 kts | 14° |
| 2026-04-24 23:43 | 25.34373 | -81.40482 | 19026 ft | 392 kts | 14° |
| 2026-04-24 23:44 | 25.36964 | -81.39539 | 19028 ft | 391 kts | 15° |
| 2026-04-24 23:44 | 25.39554 | -81.38598 | 19027 ft | 391 kts | 14° |
| 2026-04-24 23:44 | 25.42137 | -81.37661 | 19023 ft | 390 kts | 14° |
| 2026-04-24 23:44 | 25.44708 | -81.36725 | 19023 ft | 389 kts | 14° |
| 2026-04-24 23:45 | 25.47284 | -81.35789 | 19026 ft | 389 kts | 14° |
| 2026-04-24 23:45 | 25.49818 | -81.34865 | 19025 ft | 389 kts | 14° |
| 2026-04-24 23:45 | 25.52357 | -81.33939 | 19021 ft | 379 kts | 14° |
| 2026-04-24 23:45 | 25.54842 | -81.33030 | 18894 ft | 372 kts | 14° |
| 2026-04-24 23:46 | 25.57285 | -81.32144 | 18753 ft | 368 kts | 14° |
| 2026-04-24 23:46 | 25.59707 | -81.31259 | 18612 ft | 364 kts | 14° |
| 2026-04-24 23:46 | 25.62107 | -81.30386 | 18473 ft | 361 kts | 14° |
| 2026-04-24 23:46 | 25.64487 | -81.29514 | 18335 ft | 359 kts | 14° |
| 2026-04-24 23:47 | 25.66863 | -81.28651 | 18187 ft | 357 kts | 14° |
| 2026-04-24 23:47 | 25.69217 | -81.27788 | 18050 ft | 356 kts | 14° |
| 2026-04-24 23:47 | 25.71570 | -81.26932 | 17890 ft | 355 kts | 15° |
| 2026-04-24 23:47 | 25.73912 | -81.26071 | 17732 ft | 354 kts | 14° |
| 2026-04-24 23:48 | 25.76222 | -81.25231 | 17572 ft | 354 kts | 15° |
| 2026-04-24 23:48 | 25.78562 | -81.24370 | 17416 ft | 353 kts | 14° |
| 2026-04-24 23:48 | 25.80891 | -81.23523 | 17262 ft | 352 kts | 15° |
| 2026-04-24 23:48 | 25.83222 | -81.22664 | 17108 ft | 352 kts | 15° |
| 2026-04-24 23:49 | 25.85546 | -81.21812 | 16956 ft | 351 kts | 14° |
| 2026-04-24 23:49 | 25.87872 | -81.20967 | 16804 ft | 351 kts | 15° |
| 2026-04-24 23:49 | 25.90189 | -81.20111 | 16653 ft | 351 kts | 14° |
| 2026-04-24 23:49 | 25.92509 | -81.19265 | 16503 ft | 351 kts | 15° |
| 2026-04-24 23:50 | 25.94802 | -81.18418 | 16361 ft | 350 kts | 15° |
| 2026-04-24 23:50 | 25.97119 | -81.17574 | 16212 ft | 350 kts | 15° |
| 2026-04-24 23:50 | 25.99437 | -81.16717 | 16079 ft | 350 kts | 15° |
| 2026-04-24 23:50 | 26.01751 | -81.15873 | 15932 ft | 350 kts | 15° |
| 2026-04-24 23:51 | 26.04094 | -81.15190 | 15773 ft | 345 kts | 1° |
| 2026-04-24 23:51 | 26.06437 | -81.15518 | 15619 ft | 339 kts | 344° |
| 2026-04-24 23:51 | 26.08725 | -81.16134 | 15530 ft | 337 kts | 343° |
| 2026-04-24 23:51 | 26.10987 | -81.16669 | 15506 ft | 335 kts | 347° |
| 2026-04-24 23:52 | 26.13301 | -81.16930 | 15489 ft | 334 kts | 354° |
| 2026-04-24 23:52 | 26.15615 | -81.17093 | 15472 ft | 332 kts | 352° |
| 2026-04-24 23:52 | 26.17909 | -81.17361 | 15471 ft | 329 kts | 350° |
| 2026-04-24 23:52 | 26.20180 | -81.17646 | 15466 ft | 327 kts | 350° |
| 2026-04-24 23:53 | 26.22443 | -81.17920 | 15469 ft | 326 kts | 351° |
| 2026-04-24 23:53 | 26.24701 | -81.18164 | 15468 ft | 326 kts | 351° |
| 2026-04-24 23:53 | 26.26950 | -81.18431 | 15468 ft | 325 kts | 351° |
| 2026-04-24 23:53 | 26.29173 | -81.18684 | 15468 ft | 324 kts | 351° |
| 2026-04-24 23:54 | 26.31413 | -81.18945 | 15472 ft | 324 kts | 352° |
| 2026-04-24 23:54 | 26.33638 | -81.18517 | 15453 ft | 333 kts | 22° |
| 2026-04-24 23:54 | 26.35481 | -81.16968 | 15331 ft | 333 kts | 40° |
| 2026-04-24 23:54 | 26.37106 | -81.15131 | 15116 ft | 331 kts | 43° |
| 2026-04-24 23:55 | 26.38741 | -81.13337 | 14905 ft | 329 kts | 39° |
| 2026-04-24 23:55 | 26.40539 | -81.11786 | 14692 ft | 325 kts | 30° |
| 2026-04-24 23:55 | 26.42443 | -81.10444 | 14477 ft | 323 kts | 29° |
| 2026-04-24 23:55 | 26.44304 | -81.09037 | 14269 ft | 323 kts | 32° |
| 2026-04-24 23:56 | 26.46127 | -81.07568 | 14061 ft | 323 kts | 33° |
| 2026-04-24 23:56 | 26.47957 | -81.06107 | 13847 ft | 322 kts | 32° |
| 2026-04-24 23:56 | 26.49787 | -81.04664 | 13638 ft | 322 kts | 32° |
| 2026-04-24 23:56 | 26.51622 | -81.03227 | 13403 ft | 321 kts | 32° |
| 2026-04-24 23:57 | 26.53426 | -81.01805 | 13187 ft | 321 kts | 32° |
| 2026-04-24 23:57 | 26.55280 | -81.00435 | 12989 ft | 319 kts | 30° |
| 2026-04-24 23:57 | 26.57149 | -80.99108 | 12810 ft | 317 kts | 29° |
| 2026-04-24 23:57 | 26.59027 | -80.97830 | 12649 ft | 315 kts | 28° |
| 2026-04-24 23:58 | 26.60901 | -80.96598 | 12524 ft | 311 kts | 26° |
| 2026-04-24 23:58 | 26.62804 | -80.95470 | 12358 ft | 309 kts | 24° |
| 2026-04-24 23:58 | 26.64703 | -80.94321 | 12172 ft | 309 kts | 26° |
| 2026-04-24 23:58 | 26.66578 | -80.93142 | 11991 ft | 309 kts | 26° |
| 2026-04-24 23:59 | 26.68401 | -80.91873 | 11825 ft | 309 kts | 31° |
| 2026-04-24 23:59 | 26.70137 | -80.90490 | 11639 ft | 310 kts | 34° |
| 2026-04-24 23:59 | 26.71751 | -80.88867 | 11374 ft | 315 kts | 44° |
| 2026-04-24 23:59 | 26.73009 | -80.86836 | 11091 ft | 319 kts | 60° |
| 2026-04-25 00:00 | 26.73748 | -80.84513 | 10737 ft | 316 kts | 76° |
| 2026-04-25 00:00 | 26.73852 | -80.82111 | 10543 ft | 305 kts | 94° |
| 2026-04-25 00:00 | 26.73560 | -80.79785 | 10358 ft | 298 kts | 98° |
| 2026-04-25 00:00 | 26.73242 | -80.77522 | 10221 ft | 291 kts | 97° |
| 2026-04-25 00:01 | 26.72977 | -80.75294 | 10013 ft | 289 kts | 96° |
| 2026-04-25 00:01 | 26.72724 | -80.73061 | 9726 ft | 289 kts | 96° |
| 2026-04-25 00:01 | 26.72472 | -80.70838 | 9423 ft | 288 kts | 96° |
| 2026-04-25 00:01 | 26.72232 | -80.68599 | 9051 ft | 290 kts | 95° |
| 2026-04-25 00:02 | 26.72032 | -80.66358 | 8746 ft | 289 kts | 94° |
| 2026-04-25 00:02 | 26.71884 | -80.64143 | 8440 ft | 288 kts | 92° |
| 2026-04-25 00:02 | 26.71739 | -80.61919 | 8159 ft | 284 kts | 93° |
| 2026-04-25 00:02 | 26.71608 | -80.59745 | 7815 ft | 278 kts | 92° |
| 2026-04-25 00:03 | 26.71416 | -80.57611 | 7496 ft | 273 kts | 95° |
| 2026-04-25 00:03 | 26.71187 | -80.55516 | 7147 ft | 270 kts | 96° |
| 2026-04-25 00:03 | 26.70935 | -80.53466 | 6757 ft | 259 kts | 98° |
| 2026-04-25 00:03 | 26.70651 | -80.51543 | 6440 ft | 243 kts | 98° |
| 2026-04-25 00:04 | 26.70391 | -80.49726 | 6115 ft | 230 kts | 97° |
| 2026-04-25 00:04 | 26.70207 | -80.47986 | 5817 ft | 220 kts | 96° |
| 2026-04-25 00:04 | 26.70044 | -80.46328 | 5576 ft | 209 kts | 95° |
| 2026-04-25 00:04 | 26.69935 | -80.44765 | 5370 ft | 200 kts | 93° |
| 2026-04-25 00:05 | 26.69860 | -80.43239 | 5161 ft | 193 kts | 93° |
| 2026-04-25 00:05 | 26.69752 | -80.41770 | 4987 ft | 186 kts | 95° |
| 2026-04-25 00:05 | 26.69652 | -80.40340 | 4784 ft | 182 kts | 93° |
| 2026-04-25 00:05 | 26.69584 | -80.38948 | 4616 ft | 176 kts | 93° |
| 2026-04-25 00:06 | 26.69532 | -80.37597 | 4449 ft | 172 kts | 92° |
| 2026-04-25 00:06 | 26.69485 | -80.36273 | 4255 ft | 170 kts | 92° |
| 2026-04-25 00:06 | 26.69447 | -80.35001 | 4142 ft | 155 kts | 93° |
| 2026-04-25 00:06 | 26.69369 | -80.33828 | 3972 ft | 147 kts | 95° |
| 2026-04-25 00:07 | 26.69303 | -80.32725 | 3839 ft | 139 kts | 94° |
| 2026-04-25 00:07 | 26.69254 | -80.31647 | 3693 ft | 143 kts | 95° |
| 2026-04-25 00:07 | 26.69203 | -80.30527 | 3565 ft | 146 kts | 94° |
| 2026-04-25 00:07 | 26.69152 | -80.29385 | 3423 ft | 148 kts | 94° |
| 2026-04-25 00:08 | 26.69096 | -80.28225 | 3290 ft | 149 kts | 94° |
| 2026-04-25 00:08 | 26.69061 | -80.27080 | 3104 ft | 146 kts | 94° |
| 2026-04-25 00:08 | 26.69010 | -80.25955 | 2904 ft | 142 kts | 94° |
| 2026-04-25 00:08 | 26.68984 | -80.24867 | 2686 ft | 140 kts | 94° |
| 2026-04-25 00:09 | 26.68945 | -80.23779 | 2480 ft | 138 kts | 95° |
| 2026-04-25 00:09 | 26.68896 | -80.22737 | 2279 ft | 124 kts | 95° |
| 2026-04-25 00:09 | 26.68861 | -80.21829 | 2007 ft | 112 kts | 95° |
| 2026-04-25 00:09 | 26.68821 | -80.20993 | 1831 ft | 105 kts | 96° |
| 2026-04-25 00:10 | 26.68770 | -80.20186 | 1724 ft | 101 kts | 96° |
| 2026-04-25 00:10 | 26.68731 | -80.19393 | 1578 ft | 103 kts | 95° |
| 2026-04-25 00:10 | 26.68697 | -80.18578 | 1454 ft | 108 kts | 95° |
| 2026-04-25 00:10 | 26.68669 | -80.18013 | 1391 ft | 111 kts | 95° |
| 2026-04-25 00:11 | 26.68614 | -80.16863 | 1327 ft | 110 kts | 95° |
| 2026-04-25 00:11 | 26.68582 | -80.16292 | 1218 ft | 112 kts | 96° |
| 2026-04-25 00:11 | 26.68518 | -80.15144 | 956 ft | 111 kts | 96° |
| 2026-04-25 00:11 | 26.68474 | -80.14291 | 763 ft | 108 kts | 95° |
| 2026-04-25 00:12 | 26.68439 | -80.13469 | 620 ft | 104 kts | 92° |
| 2026-04-25 00:12 | 26.68401 | -80.12671 | 461 ft | 102 kts | 94° |
| 2026-04-25 00:12 | 26.68363 | -80.11872 | 342 ft | 102 kts | 92° |
| 2026-04-25 00:12 | 26.68337 | -80.11062 | 162 ft | 105 kts | 94° |
| 2026-04-25 00:13 | 26.68299 | -80.10277 | 40 ft | 95 kts | 94° |
| 2026-04-25 00:13 | 26.68268 | -80.09635 | 27 ft | 71 kts | 92° |
| 2026-04-25 00:13 | 26.68273 | -80.09321 | 19 ft | 17 kts | 53° |
| 2026-04-25 00:13 | 26.68338 | -80.09254 | 19 ft | 0 kts | 44° |
| 2026-04-25 00:14 | 26.68351 | -80.09237 | 19 ft | 0 kts | 52° |
| 2026-04-25 00:15 | 26.68352 | -80.09236 | 19 ft | 4 kts | 52° |
| 2026-04-25 00:15 | 26.68371 | -80.09150 | 19 ft | 6 kts | 180° |
| 2026-04-25 00:15 | 26.68365 | -80.09282 | 19 ft | 24 kts | 272° |
| 2026-04-25 00:15 | 26.68366 | -80.09345 | 19 ft | 0 kts | 271° |
| 2026-04-25 00:16 | 26.68372 | -80.09489 | 22 ft | 37 kts | 272° |
| 2026-04-25 00:16 | 26.68383 | -80.09744 | 26 ft | 28 kts | 274° |
| 2026-04-25 00:16 | 26.68394 | -80.09966 | 26 ft | 29 kts | 273° |
| 2026-04-25 00:16 | 26.68397 | -80.10019 | 27 ft | 29 kts | 272° |
| 2026-04-25 00:17 | 26.68397 | -80.10034 | 27 ft | 29 kts | 272° |
| 2026-04-25 00:17 | 26.68407 | -80.10266 | 23 ft | 36 kts | 272° |
| 2026-04-25 00:17 | 26.68429 | -80.10553 | 18 ft | 11 kts | 336° |
| 2026-04-25 00:18 | 26.68555 | -80.10558 | 18 ft | 21 kts | 285° |
| 2026-04-25 00:18 | 26.68584 | -80.10692 | 17 ft | 13 kts | 349° |
| 2026-04-25 00:18 | 26.68658 | -80.10706 | 20 ft | 12 kts | 293° |
| 2026-04-25 00:18 | 26.68669 | -80.10787 | 19 ft | 2 kts | 323° |
| 2026-04-25 00:19 | 26.68670 | -80.10787 | 19 ft | 0 kts | 324° |